KCBG

Details ICAO KCBG
Name CAMBRIDGE MUNI
Region United States
Timezone America/Chicago (UTC-6.0)
Plans Departing 2
Arriving 1
Stats Elevation 945 ft / 288 m (AMSL)
Location 45.557494° -93.264185°
Runways 1
Magnetic Variation 0.147° E
Sunrise 2017-12-11 13:44:56 UTC / 2017-12-11 07:44:56 Local
Sunset 2017-12-11 22:30:50 UTC / 2017-12-11 16:30:50 Local
Advertisement - Login to hide

Runways

ID Width Length Bearing (true) Bearing (mag) Surface Threshold Offset Overrun Length
16 75 ft / 23 m 4,001 ft / 1,220 m 162.56° 162.41° Asphalt 0 ft / 0 m 0 ft / 0 m
34 75 ft / 23 m 4,001 ft / 1,220 m 342.57° 342.42° Asphalt 0 ft / 0 m 0 ft / 0 m

Map

Weather


0- 5 10 15 20 25 30 35+ Temperature / ° C

Clouds and Precipitation
Forecast for 2017-12-12 00:00 UTC. Updated 15 minutes ago

Ground ~20,000 ft ~40,000 ft Winds

METAR

KCBG 111935Z AUTO 33013G21KT 10SM BKN018 OVC022 01/M04 A2989 RMK AO2

TAF

Not found

Frequencies

Recorded 121.12 MHz AWOS 3
Unicom 122.80 MHz CTAF/UNICOM
Warning: Do not use this data for real-world aviation or navigation. No guarantee of current accuracy is given.